sensor_id;sensor_type;location;lat;lon;timestamp;P1;P2;P0
37290;PMS5003;23175;-33.706;151.094;2023-08-06T00:01:34;8;5;
37290;PMS5003;23175;-33.706;151.094;2023-08-06T00:04:04;7;4;
37290;PMS5003;23175;-33.706;151.094;2023-08-06T00:06:33;4;4;
37290;PMS5003;23175;-33.706;151.094;2023-08-06T00:09:04;4;4;
37290;PMS5003;23175;-33.706;151.094;2023-08-06T00:11:34;10;8;
37290;PMS5003;23175;-33.706;151.094;2023-08-06T00:14:04;11;9;
37290;PMS5003;23175;-33.706;151.094;2023-08-06T00:16:35;10;10;
37290;PMS5003;23175;-33.706;151.094;2023-08-06T00:19:04;8;5;
37290;PMS5003;23175;-33.706;151.094;2023-08-06T00:21:35;5;5;
37290;PMS5003;23175;-33.706;151.094;2023-08-06T00:24:06;5;5;
37290;PMS5003;23175;-33.706;151.094;2023-08-06T00:26:36;5;4;
37290;PMS5003;23175;-33.706;151.094;2023-08-06T00:29:06;10;9;
37290;PMS5003;23175;-33.706;151.094;2023-08-06T00:31:36;8;5;
37290;PMS5003;23175;-33.706;151.094;2023-08-06T00:34:06;8;5;
37290;PMS5003;23175;-33.706;151.094;2023-08-06T00:36:37;7;4;
37290;PMS5003;23175;-33.706;151.094;2023-08-06T00:39:06;7;5;
37290;PMS5003;23175;-33.706;151.094;2023-08-06T00:41:36;4;4;
37290;PMS5003;23175;-33.706;151.094;2023-08-06T00:44:06;9;7;
37290;PMS5003;23175;-33.706;151.094;2023-08-06T00:46:36;4;2;
37290;PMS5003;23175;-33.706;151.094;2023-08-06T00:49:07;5;5;
37290;PMS5003;23175;-33.706;151.094;2023-08-06T00:51:37;5;5;
37290;PMS5003;23175;-33.706;151.094;2023-08-06T00:54:07;9;7;
37290;PMS5003;23175;-33.706;151.094;2023-08-06T00:56:38;6;4;
37290;PMS5003;23175;-33.706;151.094;2023-08-06T00:59:09;4;4;
37290;PMS5003;23175;-33.706;151.094;2023-08-06T01:01:41;5;5;
37290;PMS5003;23175;-33.706;151.094;2023-08-06T01:04:12;3;3;
37290;PMS5003;23175;-33.706;151.094;2023-08-06T01:06:43;4;4;
37290;PMS5003;23175;-33.706;151.094;2023-08-06T01:09:21;4;3;
37290;PMS5003;23175;-33.706;151.094;2023-08-06T01:12:02;7;6;
37290;PMS5003;23175;-33.706;151.094;2023-08-06T01:14:48;5;4;
37290;PMS5003;23175;-33.706;151.094;2023-08-06T01:17:26;7;5;
37290;PMS5003;23175;-33.706;151.094;2023-08-06T01:19:57;4;4;
37290;PMS5003;23175;-33.706;151.094;2023-08-06T01:22:32;13;13;
37290;PMS5003;23175;-33.706;151.094;2023-08-06T01:25:02;8;4;
37290;PMS5003;23175;-33.706;151.094;2023-08-06T01:27:33;3;3;
37290;PMS5003;23175;-33.706;151.094;2023-08-06T01:30:13;6;3;
37290;PMS5003;23175;-33.706;151.094;2023-08-06T01:32:48;13;8;
37290;PMS5003;23175;-33.706;151.094;2023-08-06T01:35:23;5;4;
37290;PMS5003;23175;-33.706;151.094;2023-08-06T01:37:55;8;7;
37290;PMS5003;23175;-33.706;151.094;2023-08-06T01:40:25;7;6;
37290;PMS5003;23175;-33.706;151.094;2023-08-06T01:42:56;1;1;
37290;PMS5003;23175;-33.706;151.094;2023-08-06T01:45:26;5;4;
37290;PMS5003;23175;-33.706;151.094;2023-08-06T01:47:55;2;2;
37290;PMS5003;23175;-33.706;151.094;2023-08-06T01:50:26;5;5;
37290;PMS5003;23175;-33.706;151.094;2023-08-06T01:52:55;2;2;
37290;PMS5003;23175;-33.706;151.094;2023-08-06T01:55:25;6;6;
37290;PMS5003;23175;-33.706;151.094;2023-08-06T01:57:56;4;2;
37290;PMS5003;23175;-33.706;151.094;2023-08-06T02:00:26;5;5;
37290;PMS5003;23175;-33.706;151.094;2023-08-06T02:02:56;6;5;
37290;PMS5003;23175;-33.706;151.094;2023-08-06T02:05:26;6;4;
37290;PMS5003;23175;-33.706;151.094;2023-08-06T02:07:56;7;6;
37290;PMS5003;23175;-33.706;151.094;2023-08-06T02:10:26;11;10;
37290;PMS5003;23175;-33.706;151.094;2023-08-06T02:12:56;4;4;
37290;PMS5003;23175;-33.706;151.094;2023-08-06T02:15:26;4;2;
37290;PMS5003;23175;-33.706;151.094;2023-08-06T02:17:57;4;3;
37290;PMS5003;23175;-33.706;151.094;2023-08-06T02:20:28;9;9;
37290;PMS5003;23175;-33.706;151.094;2023-08-06T02:22:58;3;3;
37290;PMS5003;23175;-33.706;151.094;2023-08-06T02:25:28;12;12;
37290;PMS5003;23175;-33.706;151.094;2023-08-06T02:27:58;2;2;
37290;PMS5003;23175;-33.706;151.094;2023-08-06T02:30:28;5;3;
37290;PMS5003;23175;-33.706;151.094;2023-08-06T02:32:58;3;2;
37290;PMS5003;23175;-33.706;151.094;2023-08-06T02:35:27;2;2;
37290;PMS5003;23175;-33.706;151.094;2023-08-06T02:37:57;5;4;
37290;PMS5003;23175;-33.706;151.094;2023-08-06T02:40:28;10;7;
37290;PMS5003;23175;-33.706;151.094;2023-08-06T02:42:57;4;1;
37290;PMS5003;23175;-33.706;151.094;2023-08-06T02:45:27;3;2;
37290;PMS5003;23175;-33.706;151.094;2023-08-06T02:47:58;4;4;
37290;PMS5003;23175;-33.706;151.094;2023-08-06T02:50:28;3;3;
37290;PMS5003;23175;-33.706;151.094;2023-08-06T02:52:58;3;3;
37290;PMS5003;23175;-33.706;151.094;2023-08-06T02:55:28;5;5;
37290;PMS5003;23175;-33.706;151.094;2023-08-06T02:57:58;2;2;
37290;PMS5003;23175;-33.706;151.094;2023-08-06T03:00:29;9;6;
37290;PMS5003;23175;-33.706;151.094;2023-08-06T03:02:58;3;3;
37290;PMS5003;23175;-33.706;151.094;2023-08-06T03:05:29;3;3;
37290;PMS5003;23175;-33.706;151.094;2023-08-06T03:07:59;3;3;
37290;PMS5003;23175;-33.706;151.094;2023-08-06T03:10:29;4;3;
37290;PMS5003;23175;-33.706;151.094;2023-08-06T03:12:59;3;3;
37290;PMS5003;23175;-33.706;151.094;2023-08-06T03:15:28;1;1;
37290;PMS5003;23175;-33.706;151.094;2023-08-06T03:17:58;7;6;
37290;PMS5003;23175;-33.706;151.094;2023-08-06T03:20:28;6;6;
37290;PMS5003;23175;-33.706;151.094;2023-08-06T03:22:59;11;11;
37290;PMS5003;23175;-33.706;151.094;2023-08-06T03:25:29;17;14;
37290;PMS5003;23175;-33.706;151.094;2023-08-06T03:27:59;19;17;
37290;PMS5003;23175;-33.706;151.094;2023-08-06T03:30:29;11;11;
37290;PMS5003;23175;-33.706;151.094;2023-08-06T03:32:59;13;10;
37290;PMS5003;23175;-33.706;151.094;2023-08-06T03:35:29;14;13;
37290;PMS5003;23175;-33.706;151.094;2023-08-06T03:37:59;10;10;
37290;PMS5003;23175;-33.706;151.094;2023-08-06T03:40:29;18;12;
37290;PMS5003;23175;-33.706;151.094;2023-08-06T03:42:59;13;9;
37290;PMS5003;23175;-33.706;151.094;2023-08-06T03:45:29;7;7;
37290;PMS5003;23175;-33.706;151.094;2023-08-06T03:47:59;8;6;
37290;PMS5003;23175;-33.706;151.094;2023-08-06T03:50:29;6;5;
37290;PMS5003;23175;-33.706;151.094;2023-08-06T03:52:59;5;5;
37290;PMS5003;23175;-33.706;151.094;2023-08-06T03:55:30;3;3;
37290;PMS5003;23175;-33.706;151.094;2023-08-06T03:58:00;3;3;
37290;PMS5003;23175;-33.706;151.094;2023-08-06T04:00:30;5;5;
37290;PMS5003;23175;-33.706;151.094;2023-08-06T04:03:00;6;5;
37290;PMS5003;23175;-33.706;151.094;2023-08-06T04:05:31;4;4;
37290;PMS5003;23175;-33.706;151.094;2023-08-06T04:08:02;4;4;
37290;PMS5003;23175;-33.706;151.094;2023-08-06T04:10:31;4;4;
37290;PMS5003;23175;-33.706;151.094;2023-08-06T04:13:02;6;6;
37290;PMS5003;23175;-33.706;151.094;2023-08-06T04:15:33;5;3;
37290;PMS5003;23175;-33.706;151.094;2023-08-06T04:18:04;1;1;
37290;PMS5003;23175;-33.706;151.094;2023-08-06T04:20:34;2;2;
37290;PMS5003;23175;-33.706;151.094;2023-08-06T04:23:15;4;4;
37290;PMS5003;23175;-33.706;151.094;2023-08-06T04:25:45;3;3;
37290;PMS5003;23175;-33.706;151.094;2023-08-06T04:28:15;5;5;
37290;PMS5003;23175;-33.706;151.094;2023-08-06T04:30:45;4;3;
37290;PMS5003;23175;-33.706;151.094;2023-08-06T04:33:14;4;4;
37290;PMS5003;23175;-33.706;151.094;2023-08-06T04:35:45;10;7;
37290;PMS5003;23175;-33.706;151.094;2023-08-06T04:38:20;3;3;
37290;PMS5003;23175;-33.706;151.094;2023-08-06T04:40:50;1;1;
37290;PMS5003;23175;-33.706;151.094;2023-08-06T04:43:21;3;3;
37290;PMS5003;23175;-33.706;151.094;2023-08-06T04:45:55;6;4;
37290;PMS5003;23175;-33.706;151.094;2023-08-06T04:48:26;7;4;
37290;PMS5003;23175;-33.706;151.094;2023-08-06T04:50:55;3;3;
37290;PMS5003;23175;-33.706;151.094;2023-08-06T04:53:25;7;6;
37290;PMS5003;23175;-33.706;151.094;2023-08-06T04:55:55;2;2;
37290;PMS5003;23175;-33.706;151.094;2023-08-06T04:58:25;9;8;
37290;PMS5003;23175;-33.706;151.094;2023-08-06T05:00:56;3;3;
37290;PMS5003;23175;-33.706;151.094;2023-08-06T05:03:26;4;4;
37290;PMS5003;23175;-33.706;151.094;2023-08-06T05:05:56;5;4;
37290;PMS5003;23175;-33.706;151.094;2023-08-06T05:08:25;3;3;
37290;PMS5003;23175;-33.706;151.094;2023-08-06T05:10:55;6;3;
37290;PMS5003;23175;-33.706;151.094;2023-08-06T05:13:25;5;4;
37290;PMS5003;23175;-33.706;151.094;2023-08-06T05:15:55;7;5;
37290;PMS5003;23175;-33.706;151.094;2023-08-06T05:18:26;3;3;
37290;PMS5003;23175;-33.706;151.094;2023-08-06T05:20:55;3;3;
37290;PMS5003;23175;-33.706;151.094;2023-08-06T05:23:25;6;4;
37290;PMS5003;23175;-33.706;151.094;2023-08-06T05:25:56;3;3;
37290;PMS5003;23175;-33.706;151.094;2023-08-06T05:28:25;4;4;
37290;PMS5003;23175;-33.706;151.094;2023-08-06T05:30:55;4;4;
37290;PMS5003;23175;-33.706;151.094;2023-08-06T05:33:25;2;2;
37290;PMS5003;23175;-33.706;151.094;2023-08-06T05:35:55;3;3;
37290;PMS5003;23175;-33.706;151.094;2023-08-06T05:38:24;5;4;
37290;PMS5003;23175;-33.706;151.094;2023-08-06T05:40:54;3;2;
37290;PMS5003;23175;-33.706;151.094;2023-08-06T05:43:24;5;3;
37290;PMS5003;23175;-33.706;151.094;2023-08-06T05:45:54;4;4;
37290;PMS5003;23175;-33.706;151.094;2023-08-06T05:48:24;6;4;
37290;PMS5003;23175;-33.706;151.094;2023-08-06T05:50:53;4;2;
37290;PMS5003;23175;-33.706;151.094;2023-08-06T05:53:23;5;3;
37290;PMS5003;23175;-33.706;151.094;2023-08-06T05:55:53;5;3;
37290;PMS5003;23175;-33.706;151.094;2023-08-06T05:58:24;6;3;
37290;PMS5003;23175;-33.706;151.094;2023-08-06T06:00:54;3;3;
37290;PMS5003;23175;-33.706;151.094;2023-08-06T06:03:24;3;3;
37290;PMS5003;23175;-33.706;151.094;2023-08-06T06:05:54;3;2;
37290;PMS5003;23175;-33.706;151.094;2023-08-06T06:08:24;4;4;
37290;PMS5003;23175;-33.706;151.094;2023-08-06T06:10:55;5;5;
37290;PMS5003;23175;-33.706;151.094;2023-08-06T06:13:25;4;4;
37290;PMS5003;23175;-33.706;151.094;2023-08-06T06:15:55;7;6;
37290;PMS5003;23175;-33.706;151.094;2023-08-06T06:18:25;2;2;
37290;PMS5003;23175;-33.706;151.094;2023-08-06T06:20:55;4;4;
37290;PMS5003;23175;-33.706;151.094;2023-08-06T06:23:25;6;5;
37290;PMS5003;23175;-33.706;151.094;2023-08-06T06:25:55;7;6;
37290;PMS5003;23175;-33.706;151.094;2023-08-06T06:28:27;2;2;
37290;PMS5003;23175;-33.706;151.094;2023-08-06T06:31:00;2;2;
37290;PMS5003;23175;-33.706;151.094;2023-08-06T06:33:31;2;2;
37290;PMS5003;23175;-33.706;151.094;2023-08-06T06:36:01;3;3;
37290;PMS5003;23175;-33.706;151.094;2023-08-06T06:38:31;2;2;
37290;PMS5003;23175;-33.706;151.094;2023-08-06T06:41:01;6;6;
37290;PMS5003;23175;-33.706;151.094;2023-08-06T06:43:31;5;4;
37290;PMS5003;23175;-33.706;151.094;2023-08-06T06:46:02;4;4;
37290;PMS5003;23175;-33.706;151.094;2023-08-06T06:48:32;5;4;
37290;PMS5003;23175;-33.706;151.094;2023-08-06T06:51:03;6;4;
37290;PMS5003;23175;-33.706;151.094;2023-08-06T06:53:33;5;5;
37290;PMS5003;23175;-33.706;151.094;2023-08-06T06:56:03;6;5;
37290;PMS5003;23175;-33.706;151.094;2023-08-06T06:58:33;4;4;
37290;PMS5003;23175;-33.706;151.094;2023-08-06T07:01:03;7;6;
37290;PMS5003;23175;-33.706;151.094;2023-08-06T07:03:33;8;5;
37290;PMS5003;23175;-33.706;151.094;2023-08-06T07:06:03;3;3;
37290;PMS5003;23175;-33.706;151.094;2023-08-06T07:08:33;5;4;
37290;PMS5003;23175;-33.706;151.094;2023-08-06T07:11:03;2;2;
37290;PMS5003;23175;-33.706;151.094;2023-08-06T07:13:34;4;3;
37290;PMS5003;23175;-33.706;151.094;2023-08-06T07:16:05;6;4;
37290;PMS5003;23175;-33.706;151.094;2023-08-06T07:18:34;3;3;
37290;PMS5003;23175;-33.706;151.094;2023-08-06T07:21:04;6;6;
37290;PMS5003;23175;-33.706;151.094;2023-08-06T07:23:34;5;5;
37290;PMS5003;23175;-33.706;151.094;2023-08-06T07:26:04;5;3;
37290;PMS5003;23175;-33.706;151.094;2023-08-06T07:28:34;6;6;
37290;PMS5003;23175;-33.706;151.094;2023-08-06T07:31:04;4;4;
37290;PMS5003;23175;-33.706;151.094;2023-08-06T07:33:34;3;3;
37290;PMS5003;23175;-33.706;151.094;2023-08-06T07:36:10;4;4;
37290;PMS5003;23175;-33.706;151.094;2023-08-06T07:38:41;6;6;
37290;PMS5003;23175;-33.706;151.094;2023-08-06T07:41:11;10;5;
37290;PMS5003;23175;-33.706;151.094;2023-08-06T07:43:41;7;6;
37290;PMS5003;23175;-33.706;151.094;2023-08-06T07:46:11;5;5;
37290;PMS5003;23175;-33.706;151.094;2023-08-06T07:48:46;6;4;
37290;PMS5003;23175;-33.706;151.094;2023-08-06T07:51:16;5;4;
37290;PMS5003;23175;-33.706;151.094;2023-08-06T07:53:45;6;5;
37290;PMS5003;23175;-33.706;151.094;2023-08-06T07:56:15;3;3;
37290;PMS5003;23175;-33.706;151.094;2023-08-06T07:58:45;5;5;
37290;PMS5003;23175;-33.706;151.094;2023-08-06T08:01:14;6;5;
37290;PMS5003;23175;-33.706;151.094;2023-08-06T08:03:44;5;5;
37290;PMS5003;23175;-33.706;151.094;2023-08-06T08:06:15;5;5;
37290;PMS5003;23175;-33.706;151.094;2023-08-06T08:08:45;7;6;
37290;PMS5003;23175;-33.706;151.094;2023-08-06T08:11:15;5;5;
37290;PMS5003;23175;-33.706;151.094;2023-08-06T08:13:46;9;7;
37290;PMS5003;23175;-33.706;151.094;2023-08-06T08:16:16;8;7;
37290;PMS5003;23175;-33.706;151.094;2023-08-06T08:18:45;11;9;
37290;PMS5003;23175;-33.706;151.094;2023-08-06T08:21:16;6;6;
37290;PMS5003;23175;-33.706;151.094;2023-08-06T08:23:47;9;9;
37290;PMS5003;23175;-33.706;151.094;2023-08-06T08:26:17;8;6;
37290;PMS5003;23175;-33.706;151.094;2023-08-06T08:28:47;6;6;
37290;PMS5003;23175;-33.706;151.094;2023-08-06T08:31:16;6;5;
37290;PMS5003;23175;-33.706;151.094;2023-08-06T08:33:47;5;5;
37290;PMS5003;23175;-33.706;151.094;2023-08-06T08:36:17;8;7;
37290;PMS5003;23175;-33.706;151.094;2023-08-06T08:38:46;9;7;
37290;PMS5003;23175;-33.706;151.094;2023-08-06T08:41:17;8;6;
37290;PMS5003;23175;-33.706;151.094;2023-08-06T08:43:47;11;8;
37290;PMS5003;23175;-33.706;151.094;2023-08-06T08:46:19;10;10;
37290;PMS5003;23175;-33.706;151.094;2023-08-06T08:48:48;10;10;
37290;PMS5003;23175;-33.706;151.094;2023-08-06T08:51:18;9;9;
37290;PMS5003;23175;-33.706;151.094;2023-08-06T08:53:49;12;12;
37290;PMS5003;23175;-33.706;151.094;2023-08-06T08:56:21;13;13;
37290;PMS5003;23175;-33.706;151.094;2023-08-06T08:58:51;11;10;
37290;PMS5003;23175;-33.706;151.094;2023-08-06T09:01:26;10;10;
37290;PMS5003;23175;-33.706;151.094;2023-08-06T09:03:57;9;9;
37290;PMS5003;23175;-33.706;151.094;2023-08-06T09:06:28;15;14;
37290;PMS5003;23175;-33.706;151.094;2023-08-06T09:09:16;14;13;
37290;PMS5003;23175;-33.706;151.094;2023-08-06T09:11:50;14;14;
37290;PMS5003;23175;-33.706;151.094;2023-08-06T09:14:21;12;10;
37290;PMS5003;23175;-33.706;151.094;2023-08-06T09:16:52;14;13;
37290;PMS5003;23175;-33.706;151.094;2023-08-06T09:19:22;17;15;
37290;PMS5003;23175;-33.706;151.094;2023-08-06T09:21:52;13;12;
37290;PMS5003;23175;-33.706;151.094;2023-08-06T09:24:24;19;17;
37290;PMS5003;23175;-33.706;151.094;2023-08-06T09:26:54;15;15;
37290;PMS5003;23175;-33.706;151.094;2023-08-06T09:29:24;15;15;
37290;PMS5003;23175;-33.706;151.094;2023-08-06T09:31:59;18;18;
37290;PMS5003;23175;-33.706;151.094;2023-08-06T09:34:29;15;14;
37290;PMS5003;23175;-33.706;151.094;2023-08-06T09:36:59;21;18;
37290;PMS5003;23175;-33.706;151.094;2023-08-06T09:39:31;15;15;
37290;PMS5003;23175;-33.706;151.094;2023-08-06T09:42:01;18;16;
37290;PMS5003;23175;-33.706;151.094;2023-08-06T09:44:32;18;16;
37290;PMS5003;23175;-33.706;151.094;2023-08-06T09:47:02;20;18;
37290;PMS5003;23175;-33.706;151.094;2023-08-06T09:49:41;15;13;
37290;PMS5003;23175;-33.706;151.094;2023-08-06T09:52:12;23;21;
37290;PMS5003;23175;-33.706;151.094;2023-08-06T09:54:43;13;13;
37290;PMS5003;23175;-33.706;151.094;2023-08-06T09:57:15;16;15;
37290;PMS5003;23175;-33.706;151.094;2023-08-06T09:59:45;16;16;
37290;PMS5003;23175;-33.706;151.094;2023-08-06T10:02:15;12;11;
37290;PMS5003;23175;-33.706;151.094;2023-08-06T10:04:47;11;10;
37290;PMS5003;23175;-33.706;151.094;2023-08-06T10:07:18;13;13;
37290;PMS5003;23175;-33.706;151.094;2023-08-06T10:09:49;14;13;
37290;PMS5003;23175;-33.706;151.094;2023-08-06T10:12:19;14;14;
37290;PMS5003;23175;-33.706;151.094;2023-08-06T10:14:50;16;15;
37290;PMS5003;23175;-33.706;151.094;2023-08-06T10:17:22;24;20;
37290;PMS5003;23175;-33.706;151.094;2023-08-06T10:19:52;17;17;
37290;PMS5003;23175;-33.706;151.094;2023-08-06T10:22:23;20;16;
37290;PMS5003;23175;-33.706;151.094;2023-08-06T10:24:53;18;18;
37290;PMS5003;23175;-33.706;151.094;2023-08-06T10:27:29;14;14;
37290;PMS5003;23175;-33.706;151.094;2023-08-06T10:30:34;18;15;
37290;PMS5003;23175;-33.706;151.094;2023-08-06T10:33:11;14;13;
37290;PMS5003;23175;-33.706;151.094;2023-08-06T10:35:42;17;17;
37290;PMS5003;23175;-33.706;151.094;2023-08-06T10:38:14;18;17;
37290;PMS5003;23175;-33.706;151.094;2023-08-06T10:40:49;15;14;
37290;PMS5003;23175;-33.706;151.094;2023-08-06T10:43:28;20;18;
37290;PMS5003;23175;-33.706;151.094;2023-08-06T10:46:00;15;15;
37290;PMS5003;23175;-33.706;151.094;2023-08-06T10:48:33;13;13;
37290;PMS5003;23175;-33.706;151.094;2023-08-06T10:51:06;15;15;
37290;PMS5003;23175;-33.706;151.094;2023-08-06T10:53:38;16;16;
37290;PMS5003;23175;-33.706;151.094;2023-08-06T10:56:13;16;15;
37290;PMS5003;23175;-33.706;151.094;2023-08-06T10:58:46;23;22;
37290;PMS5003;23175;-33.706;151.094;2023-08-06T11:01:18;17;17;
37290;PMS5003;23175;-33.706;151.094;2023-08-06T11:03:49;16;16;
37290;PMS5003;23175;-33.706;151.094;2023-08-06T11:06:21;17;15;
37290;PMS5003;23175;-33.706;151.094;2023-08-06T11:08:51;17;16;
37290;PMS5003;23175;-33.706;151.094;2023-08-06T11:11:23;14;12;
37290;PMS5003;23175;-33.706;151.094;2023-08-06T11:13:54;21;18;
37290;PMS5003;23175;-33.706;151.094;2023-08-06T11:16:23;19;14;
37290;PMS5003;23175;-33.706;151.094;2023-08-06T11:18:54;15;14;
37290;PMS5003;23175;-33.706;151.094;2023-08-06T11:21:26;14;14;
37290;PMS5003;23175;-33.706;151.094;2023-08-06T11:23:58;19;19;
37290;PMS5003;23175;-33.706;151.094;2023-08-06T11:26:28;18;13;
37290;PMS5003;23175;-33.706;151.094;2023-08-06T11:28:59;18;17;
37290;PMS5003;23175;-33.706;151.094;2023-08-06T11:31:29;12;12;
37290;PMS5003;23175;-33.706;151.094;2023-08-06T11:33:59;13;13;
37290;PMS5003;23175;-33.706;151.094;2023-08-06T11:36:30;10;10;
37290;PMS5003;23175;-33.706;151.094;2023-08-06T11:39:01;13;13;
37290;PMS5003;23175;-33.706;151.094;2023-08-06T11:41:31;15;14;
37290;PMS5003;23175;-33.706;151.094;2023-08-06T11:44:02;15;15;
37290;PMS5003;23175;-33.706;151.094;2023-08-06T11:46:50;19;17;
37290;PMS5003;23175;-33.706;151.094;2023-08-06T11:49:21;15;14;
37290;PMS5003;23175;-33.706;151.094;2023-08-06T11:52:12;15;15;
37290;PMS5003;23175;-33.706;151.094;2023-08-06T11:54:44;15;15;
37290;PMS5003;23175;-33.706;151.094;2023-08-06T11:57:15;14;13;
37290;PMS5003;23175;-33.706;151.094;2023-08-06T11:59:45;17;15;
37290;PMS5003;23175;-33.706;151.094;2023-08-06T12:02:20;15;14;
37290;PMS5003;23175;-33.706;151.094;2023-08-06T12:05:03;16;13;
37290;PMS5003;23175;-33.706;151.094;2023-08-06T12:07:40;13;13;
37290;PMS5003;23175;-33.706;151.094;2023-08-06T12:10:13;16;15;
37290;PMS5003;23175;-33.706;151.094;2023-08-06T12:12:43;18;15;
37290;PMS5003;23175;-33.706;151.094;2023-08-06T12:15:13;14;13;
37290;PMS5003;23175;-33.706;151.094;2023-08-06T12:17:44;12;11;
37290;PMS5003;23175;-33.706;151.094;2023-08-06T12:20:15;18;17;
37290;PMS5003;23175;-33.706;151.094;2023-08-06T12:22:45;15;13;
37290;PMS5003;23175;-33.706;151.094;2023-08-06T12:25:15;18;17;
37290;PMS5003;23175;-33.706;151.094;2023-08-06T12:27:46;20;17;
37290;PMS5003;23175;-33.706;151.094;2023-08-06T12:30:16;14;14;
37290;PMS5003;23175;-33.706;151.094;2023-08-06T12:32:48;16;16;
37290;PMS5003;23175;-33.706;151.094;2023-08-06T12:35:18;19;17;
37290;PMS5003;23175;-33.706;151.094;2023-08-06T12:37:48;15;15;
37290;PMS5003;23175;-33.706;151.094;2023-08-06T12:40:17;22;22;
37290;PMS5003;23175;-33.706;151.094;2023-08-06T12:42:49;21;21;
37290;PMS5003;23175;-33.706;151.094;2023-08-06T12:45:21;16;16;
37290;PMS5003;23175;-33.706;151.094;2023-08-06T12:47:52;21;21;
37290;PMS5003;23175;-33.706;151.094;2023-08-06T12:50:21;19;18;
37290;PMS5003;23175;-33.706;151.094;2023-08-06T12:52:56;26;24;
37290;PMS5003;23175;-33.706;151.094;2023-08-06T12:55:26;28;25;
37290;PMS5003;23175;-33.706;151.094;2023-08-06T12:57:57;19;19;
37290;PMS5003;23175;-33.706;151.094;2023-08-06T13:00:27;17;16;
37290;PMS5003;23175;-33.706;151.094;2023-08-06T13:02:57;24;21;
37290;PMS5003;23175;-33.706;151.094;2023-08-06T13:05:27;25;25;
37290;PMS5003;23175;-33.706;151.094;2023-08-06T13:07:57;25;21;
37290;PMS5003;23175;-33.706;151.094;2023-08-06T13:10:32;21;21;
37290;PMS5003;23175;-33.706;151.094;2023-08-06T13:13:02;23;21;
37290;PMS5003;23175;-33.706;151.094;2023-08-06T13:15:31;21;21;
37290;PMS5003;23175;-33.706;151.094;2023-08-06T13:18:02;25;24;
37290;PMS5003;23175;-33.706;151.094;2023-08-06T13:20:32;26;25;
37290;PMS5003;23175;-33.706;151.094;2023-08-06T13:23:02;19;19;
37290;PMS5003;23175;-33.706;151.094;2023-08-06T13:25:32;18;18;
37290;PMS5003;23175;-33.706;151.094;2023-08-06T13:28:03;25;22;
37290;PMS5003;23175;-33.706;151.094;2023-08-06T13:30:33;18;18;
37290;PMS5003;23175;-33.706;151.094;2023-08-06T13:33:04;21;21;
37290;PMS5003;23175;-33.706;151.094;2023-08-06T13:35:33;26;25;
37290;PMS5003;23175;-33.706;151.094;2023-08-06T13:38:03;29;27;
37290;PMS5003;23175;-33.706;151.094;2023-08-06T13:40:34;27;24;
37290;PMS5003;23175;-33.706;151.094;2023-08-06T13:43:04;23;21;
37290;PMS5003;23175;-33.706;151.094;2023-08-06T13:45:34;21;21;
37290;PMS5003;23175;-33.706;151.094;2023-08-06T13:48:05;17;17;
37290;PMS5003;23175;-33.706;151.094;2023-08-06T13:50:35;24;24;
37290;PMS5003;23175;-33.706;151.094;2023-08-06T13:53:05;22;21;
37290;PMS5003;23175;-33.706;151.094;2023-08-06T13:55:35;26;26;
37290;PMS5003;23175;-33.706;151.094;2023-08-06T13:58:05;19;19;
37290;PMS5003;23175;-33.706;151.094;2023-08-06T14:00:36;20;18;
37290;PMS5003;23175;-33.706;151.094;2023-08-06T14:03:06;21;21;
37290;PMS5003;23175;-33.706;151.094;2023-08-06T14:05:37;25;21;
37290;PMS5003;23175;-33.706;151.094;2023-08-06T14:08:06;24;23;
37290;PMS5003;23175;-33.706;151.094;2023-08-06T14:10:36;26;24;
37290;PMS5003;23175;-33.706;151.094;2023-08-06T14:13:05;28;24;
37290;PMS5003;23175;-33.706;151.094;2023-08-06T14:15:35;24;22;
37290;PMS5003;23175;-33.706;151.094;2023-08-06T14:18:06;18;18;
37290;PMS5003;23175;-33.706;151.094;2023-08-06T14:20:36;19;19;
37290;PMS5003;23175;-33.706;151.094;2023-08-06T14:23:07;22;19;
37290;PMS5003;23175;-33.706;151.094;2023-08-06T14:25:37;20;20;
37290;PMS5003;23175;-33.706;151.094;2023-08-06T14:28:07;25;25;
37290;PMS5003;23175;-33.706;151.094;2023-08-06T14:30:38;25;23;
37290;PMS5003;23175;-33.706;151.094;2023-08-06T14:33:08;21;21;
37290;PMS5003;23175;-33.706;151.094;2023-08-06T14:35:38;19;19;
37290;PMS5003;23175;-33.706;151.094;2023-08-06T14:38:07;17;17;
37290;PMS5003;23175;-33.706;151.094;2023-08-06T14:40:37;20;18;
37290;PMS5003;23175;-33.706;151.094;2023-08-06T14:43:07;21;19;
37290;PMS5003;23175;-33.706;151.094;2023-08-06T14:45:38;19;19;
37290;PMS5003;23175;-33.706;151.094;2023-08-06T14:48:07;21;19;
37290;PMS5003;23175;-33.706;151.094;2023-08-06T14:50:37;18;18;
37290;PMS5003;23175;-33.706;151.094;2023-08-06T14:53:07;21;20;
37290;PMS5003;23175;-33.706;151.094;2023-08-06T14:55:37;19;19;
37290;PMS5003;23175;-33.706;151.094;2023-08-06T14:58:07;26;22;
37290;PMS5003;23175;-33.706;151.094;2023-08-06T15:00:37;20;20;
37290;PMS5003;23175;-33.706;151.094;2023-08-06T15:03:07;23;21;
37290;PMS5003;23175;-33.706;151.094;2023-08-06T15:05:38;20;19;
37290;PMS5003;23175;-33.706;151.094;2023-08-06T15:08:11;18;17;
37290;PMS5003;23175;-33.706;151.094;2023-08-06T15:10:42;22;20;
37290;PMS5003;23175;-33.706;151.094;2023-08-06T15:13:18;21;21;
37290;PMS5003;23175;-33.706;151.094;2023-08-06T15:15:49;22;22;
37290;PMS5003;23175;-33.706;151.094;2023-08-06T15:18:20;16;16;
37290;PMS5003;23175;-33.706;151.094;2023-08-06T15:20:49;24;20;
37290;PMS5003;23175;-33.706;151.094;2023-08-06T15:23:19;21;17;
37290;PMS5003;23175;-33.706;151.094;2023-08-06T15:25:49;16;16;
37290;PMS5003;23175;-33.706;151.094;2023-08-06T15:28:19;21;21;
37290;PMS5003;23175;-33.706;151.094;2023-08-06T15:30:50;18;18;
37290;PMS5003;23175;-33.706;151.094;2023-08-06T15:33:20;22;21;
37290;PMS5003;23175;-33.706;151.094;2023-08-06T15:35:51;20;20;
37290;PMS5003;23175;-33.706;151.094;2023-08-06T15:38:20;21;19;
37290;PMS5003;23175;-33.706;151.094;2023-08-06T15:40:51;21;20;
37290;PMS5003;23175;-33.706;151.094;2023-08-06T15:43:21;21;21;
37290;PMS5003;23175;-33.706;151.094;2023-08-06T15:45:51;18;18;
37290;PMS5003;23175;-33.706;151.094;2023-08-06T15:48:21;25;25;
37290;PMS5003;23175;-33.706;151.094;2023-08-06T15:50:57;20;20;
37290;PMS5003;23175;-33.706;151.094;2023-08-06T15:53:27;23;21;
37290;PMS5003;23175;-33.706;151.094;2023-08-06T15:55:57;22;21;
37290;PMS5003;23175;-33.706;151.094;2023-08-06T15:58:27;20;16;
37290;PMS5003;23175;-33.706;151.094;2023-08-06T16:00:57;18;18;
37290;PMS5003;23175;-33.706;151.094;2023-08-06T16:03:27;20;18;
37290;PMS5003;23175;-33.706;151.094;2023-08-06T16:05:57;20;19;
37290;PMS5003;23175;-33.706;151.094;2023-08-06T16:08:27;17;14;
37290;PMS5003;23175;-33.706;151.094;2023-08-06T16:10:57;20;20;